sensor_id;sensor_type;location;lat;lon;timestamp;temperature;humidity
29501;DHT22;16450;50.288;10.966;2023-05-10T00:01:07;15.90;49.80
29501;DHT22;16450;50.288;10.966;2023-05-10T00:04:09;15.90;50.00
29501;DHT22;16450;50.288;10.966;2023-05-10T00:07:11;15.90;49.90
29501;DHT22;16450;50.288;10.966;2023-05-10T00:10:13;15.90;50.00
29501;DHT22;16450;50.288;10.966;2023-05-10T00:13:16;15.80;49.90
29501;DHT22;16450;50.288;10.966;2023-05-10T00:16:18;15.80;50.20
29501;DHT22;16450;50.288;10.966;2023-05-10T00:19:19;15.80;50.40
29501;DHT22;16450;50.288;10.966;2023-05-10T00:22:21;15.80;50.40
29501;DHT22;16450;50.288;10.966;2023-05-10T00:25:23;15.80;50.60
29501;DHT22;16450;50.288;10.966;2023-05-10T00:28:25;15.70;50.60
29501;DHT22;16450;50.288;10.966;2023-05-10T00:31:28;15.70;50.70
29501;DHT22;16450;50.288;10.966;2023-05-10T00:34:30;15.70;50.90
29501;DHT22;16450;50.288;10.966;2023-05-10T00:37:32;15.70;50.70
29501;DHT22;16450;50.288;10.966;2023-05-10T00:40:35;15.70;50.90
29501;DHT22;16450;50.288;10.966;2023-05-10T00:43:38;15.70;51.20
29501;DHT22;16450;50.288;10.966;2023-05-10T00:46:41;15.70;51.10
29501;DHT22;16450;50.288;10.966;2023-05-10T00:49:43;15.60;51.20
29501;DHT22;16450;50.288;10.966;2023-05-10T00:52:45;15.60;51.30
29501;DHT22;16450;50.288;10.966;2023-05-10T00:55:47;15.60;51.20
29501;DHT22;16450;50.288;10.966;2023-05-10T00:58:50;15.60;51.30
29501;DHT22;16450;50.288;10.966;2023-05-10T01:01:52;15.60;51.70
29501;DHT22;16450;50.288;10.966;2023-05-10T01:04:55;15.60;51.70
29501;DHT22;16450;50.288;10.966;2023-05-10T01:07:56;15.60;51.70
29501;DHT22;16450;50.288;10.966;2023-05-10T01:10:58;15.50;51.60
29501;DHT22;16450;50.288;10.966;2023-05-10T01:14:00;15.50;51.70
29501;DHT22;16450;50.288;10.966;2023-05-10T01:17:05;15.50;52.00
29501;DHT22;16450;50.288;10.966;2023-05-10T01:20:08;15.50;52.30
29501;DHT22;16450;50.288;10.966;2023-05-10T01:23:29;15.50;52.50
29501;DHT22;16450;50.288;10.966;2023-05-10T01:30:05;15.40;52.50
29501;DHT22;16450;50.288;10.966;2023-05-10T01:36:40;15.40;52.60
29501;DHT22;16450;50.288;10.966;2023-05-10T01:39:49;15.40;53.30
29501;DHT22;16450;50.288;10.966;2023-05-10T01:43:03;15.40;53.00
29501;DHT22;16450;50.288;10.966;2023-05-10T01:46:14;15.40;53.40
29501;DHT22;16450;50.288;10.966;2023-05-10T01:49:25;15.40;53.30
29501;DHT22;16450;50.288;10.966;2023-05-10T01:52:34;15.40;53.50
29501;DHT22;16450;50.288;10.966;2023-05-10T01:55:44;15.30;53.50
29501;DHT22;16450;50.288;10.966;2023-05-10T01:58:48;15.30;53.60
29501;DHT22;16450;50.288;10.966;2023-05-10T02:01:52;15.30;53.50
29501;DHT22;16450;50.288;10.966;2023-05-10T02:04:55;15.30;53.60
29501;DHT22;16450;50.288;10.966;2023-05-10T02:07:59;15.30;53.70
29501;DHT22;16450;50.288;10.966;2023-05-10T02:11:03;15.30;53.80
29501;DHT22;16450;50.288;10.966;2023-05-10T02:14:09;15.30;53.90
29501;DHT22;16450;50.288;10.966;2023-05-10T02:17:12;15.20;54.50
29501;DHT22;16450;50.288;10.966;2023-05-10T02:20:16;15.20;54.10
29501;DHT22;16450;50.288;10.966;2023-05-10T02:23:20;15.30;54.80
29501;DHT22;16450;50.288;10.966;2023-05-10T02:26:23;15.10;54.90
29501;DHT22;16450;50.288;10.966;2023-05-10T02:29:27;15.00;54.90
29501;DHT22;16450;50.288;10.966;2023-05-10T02:32:30;15.00;55.30
29501;DHT22;16450;50.288;10.966;2023-05-10T02:35:32;15.00;55.60
29501;DHT22;16450;50.288;10.966;2023-05-10T02:38:36;15.00;55.50
29501;DHT22;16450;50.288;10.966;2023-05-10T02:41:40;15.00;55.60
29501;DHT22;16450;50.288;10.966;2023-05-10T02:44:44;15.10;56.00
29501;DHT22;16450;50.288;10.966;2023-05-10T02:47:47;15.00;55.80
29501;DHT22;16450;50.288;10.966;2023-05-10T02:50:51;15.00;56.10
29501;DHT22;16450;50.288;10.966;2023-05-10T02:53:55;15.10;56.10
29501;DHT22;16450;50.288;10.966;2023-05-10T02:56:59;15.10;56.00
29501;DHT22;16450;50.288;10.966;2023-05-10T03:00:02;15.10;56.20
29501;DHT22;16450;50.288;10.966;2023-05-10T03:03:04;15.10;56.50
29501;DHT22;16450;50.288;10.966;2023-05-10T03:06:06;15.10;56.90
29501;DHT22;16450;50.288;10.966;2023-05-10T03:09:09;15.10;56.90
29501;DHT22;16450;50.288;10.966;2023-05-10T03:15:58;15.10;58.30
29501;DHT22;16450;50.288;10.966;2023-05-10T03:19:16;15.10;58.90
29501;DHT22;16450;50.288;10.966;2023-05-10T03:22:29;15.10;59.50
29501;DHT22;16450;50.288;10.966;2023-05-10T03:25:32;15.00;59.80
29501;DHT22;16450;50.288;10.966;2023-05-10T03:28:35;15.00;59.50
29501;DHT22;16450;50.288;10.966;2023-05-10T03:31:38;14.90;59.40
29501;DHT22;16450;50.288;10.966;2023-05-10T03:34:43;14.80;60.00
29501;DHT22;16450;50.288;10.966;2023-05-10T03:37:45;14.90;61.20
29501;DHT22;16450;50.288;10.966;2023-05-10T03:40:48;14.70;60.40
29501;DHT22;16450;50.288;10.966;2023-05-10T03:43:50;14.60;60.90
29501;DHT22;16450;50.288;10.966;2023-05-10T03:46:51;14.50;61.60
29501;DHT22;16450;50.288;10.966;2023-05-10T03:49:53;14.40;62.10
29501;DHT22;16450;50.288;10.966;2023-05-10T03:52:55;14.40;62.50
29501;DHT22;16450;50.288;10.966;2023-05-10T03:55:57;14.30;62.70
29501;DHT22;16450;50.288;10.966;2023-05-10T03:58:59;14.20;63.70
29501;DHT22;16450;50.288;10.966;2023-05-10T04:02:01;14.20;64.30
29501;DHT22;16450;50.288;10.966;2023-05-10T04:05:03;14.10;64.90
29501;DHT22;16450;50.288;10.966;2023-05-10T04:08:05;14.10;65.30
29501;DHT22;16450;50.288;10.966;2023-05-10T04:11:08;14.00;65.70
29501;DHT22;16450;50.288;10.966;2023-05-10T04:14:10;14.00;67.00
29501;DHT22;16450;50.288;10.966;2023-05-10T04:17:12;13.90;67.70
29501;DHT22;16450;50.288;10.966;2023-05-10T04:20:14;13.80;68.40
29501;DHT22;16450;50.288;10.966;2023-05-10T04:23:17;13.80;70.10
29501;DHT22;16450;50.288;10.966;2023-05-10T04:26:18;13.80;70.80
29501;DHT22;16450;50.288;10.966;2023-05-10T04:29:20;13.70;71.60
29501;DHT22;16450;50.288;10.966;2023-05-10T04:32:22;13.70;72.90
29501;DHT22;16450;50.288;10.966;2023-05-10T04:35:24;13.60;72.70
29501;DHT22;16450;50.288;10.966;2023-05-10T04:38:26;13.60;73.80
29501;DHT22;16450;50.288;10.966;2023-05-10T04:41:28;13.50;74.40
29501;DHT22;16450;50.288;10.966;2023-05-10T04:44:30;13.50;75.00
29501;DHT22;16450;50.288;10.966;2023-05-10T04:47:32;13.40;75.90
29501;DHT22;16450;50.288;10.966;2023-05-10T04:50:34;13.40;76.70
29501;DHT22;16450;50.288;10.966;2023-05-10T04:53:36;13.30;77.30
29501;DHT22;16450;50.288;10.966;2023-05-10T04:56:38;13.30;78.20
29501;DHT22;16450;50.288;10.966;2023-05-10T04:59:40;13.20;78.90
29501;DHT22;16450;50.288;10.966;2023-05-10T05:02:45;13.20;79.70
29501;DHT22;16450;50.288;10.966;2023-05-10T05:05:48;13.20;80.50
29501;DHT22;16450;50.288;10.966;2023-05-10T05:08:49;13.10;81.10
29501;DHT22;16450;50.288;10.966;2023-05-10T05:11:51;13.10;81.70
29501;DHT22;16450;50.288;10.966;2023-05-10T05:14:53;13.10;82.30
29501;DHT22;16450;50.288;10.966;2023-05-10T05:17:55;13.10;83.20
29501;DHT22;16450;50.288;10.966;2023-05-10T05:20:57;13.10;83.70
29501;DHT22;16450;50.288;10.966;2023-05-10T05:23:59;13.10;84.20
29501;DHT22;16450;50.288;10.966;2023-05-10T05:27:01;13.10;84.80
29501;DHT22;16450;50.288;10.966;2023-05-10T05:30:04;13.10;85.30
29501;DHT22;16450;50.288;10.966;2023-05-10T05:33:06;13.00;85.40
29501;DHT22;16450;50.288;10.966;2023-05-10T05:36:08;13.00;85.70
29501;DHT22;16450;50.288;10.966;2023-05-10T05:39:12;13.00;86.40
29501;DHT22;16450;50.288;10.966;2023-05-10T05:42:14;13.00;87.20
29501;DHT22;16450;50.288;10.966;2023-05-10T05:45:18;13.10;88.00
29501;DHT22;16450;50.288;10.966;2023-05-10T05:48:21;13.10;88.40
29501;DHT22;16450;50.288;10.966;2023-05-10T05:51:23;13.10;89.00
29501;DHT22;16450;50.288;10.966;2023-05-10T05:54:27;13.10;89.20
29501;DHT22;16450;50.288;10.966;2023-05-10T05:57:29;13.20;90.00
29501;DHT22;16450;50.288;10.966;2023-05-10T06:00:32;13.20;90.20
29501;DHT22;16450;50.288;10.966;2023-05-10T06:03:34;13.10;90.60
29501;DHT22;16450;50.288;10.966;2023-05-10T06:06:36;13.20;90.90
29501;DHT22;16450;50.288;10.966;2023-05-10T06:09:39;13.20;91.20
29501;DHT22;16450;50.288;10.966;2023-05-10T06:12:41;13.20;91.40
29501;DHT22;16450;50.288;10.966;2023-05-10T06:15:44;13.40;91.80
29501;DHT22;16450;50.288;10.966;2023-05-10T06:18:46;13.40;91.90
29501;DHT22;16450;50.288;10.966;2023-05-10T06:21:48;13.50;92.20
29501;DHT22;16450;50.288;10.966;2023-05-10T06:24:49;13.50;92.40
29501;DHT22;16450;50.288;10.966;2023-05-10T06:27:51;13.60;92.60
29501;DHT22;16450;50.288;10.966;2023-05-10T06:30:59;13.60;92.70
29501;DHT22;16450;50.288;10.966;2023-05-10T06:34:01;13.60;92.90
29501;DHT22;16450;50.288;10.966;2023-05-10T06:37:03;13.60;93.30
29501;DHT22;16450;50.288;10.966;2023-05-10T06:40:06;13.60;93.80
29501;DHT22;16450;50.288;10.966;2023-05-10T06:43:08;13.60;94.50
29501;DHT22;16450;50.288;10.966;2023-05-10T06:46:10;13.70;94.70
29501;DHT22;16450;50.288;10.966;2023-05-10T06:49:12;13.80;95.30
29501;DHT22;16450;50.288;10.966;2023-05-10T06:52:14;13.90;96.10
29501;DHT22;16450;50.288;10.966;2023-05-10T06:55:16;14.00;96.10
29501;DHT22;16450;50.288;10.966;2023-05-10T06:58:18;14.10;96.40
29501;DHT22;16450;50.288;10.966;2023-05-10T07:01:20;14.20;96.90
29501;DHT22;16450;50.288;10.966;2023-05-10T07:04:22;14.40;97.10
29501;DHT22;16450;50.288;10.966;2023-05-10T07:07:24;14.50;97.30
29501;DHT22;16450;50.288;10.966;2023-05-10T07:10:25;14.60;97.50
29501;DHT22;16450;50.288;10.966;2023-05-10T07:13:28;14.70;97.90
29501;DHT22;16450;50.288;10.966;2023-05-10T07:16:30;14.80;98.10
29501;DHT22;16450;50.288;10.966;2023-05-10T07:19:32;15.00;98.10
29501;DHT22;16450;50.288;10.966;2023-05-10T07:22:35;15.10;98.10
29501;DHT22;16450;50.288;10.966;2023-05-10T07:25:37;15.20;98.10
29501;DHT22;16450;50.288;10.966;2023-05-10T07:28:39;15.30;98.10
29501;DHT22;16450;50.288;10.966;2023-05-10T07:31:41;15.40;98.20
29501;DHT22;16450;50.288;10.966;2023-05-10T07:34:44;15.40;98.10
29501;DHT22;16450;50.288;10.966;2023-05-10T07:37:46;15.40;97.80
29501;DHT22;16450;50.288;10.966;2023-05-10T07:40:48;15.40;97.60
29501;DHT22;16450;50.288;10.966;2023-05-10T07:43:49;15.40;97.50
29501;DHT22;16450;50.288;10.966;2023-05-10T07:46:51;15.40;97.60
29501;DHT22;16450;50.288;10.966;2023-05-10T07:49:53;15.30;97.70
29501;DHT22;16450;50.288;10.966;2023-05-10T07:52:56;15.30;97.90
29501;DHT22;16450;50.288;10.966;2023-05-10T07:55:58;15.30;97.90
29501;DHT22;16450;50.288;10.966;2023-05-10T07:59:02;15.40;98.00
29501;DHT22;16450;50.288;10.966;2023-05-10T08:02:09;15.40;97.50
29501;DHT22;16450;50.288;10.966;2023-05-10T08:05:12;15.30;97.60
29501;DHT22;16450;50.288;10.966;2023-05-10T08:08:14;15.30;97.60
29501;DHT22;16450;50.288;10.966;2023-05-10T08:11:17;15.20;97.70
29501;DHT22;16450;50.288;10.966;2023-05-10T08:14:19;15.20;97.80
29501;DHT22;16450;50.288;10.966;2023-05-10T08:17:21;15.20;98.20
29501;DHT22;16450;50.288;10.966;2023-05-10T08:20:25;15.30;98.40
29501;DHT22;16450;50.288;10.966;2023-05-10T08:23:27;15.30;98.50
29501;DHT22;16450;50.288;10.966;2023-05-10T08:26:29;15.30;98.70
29501;DHT22;16450;50.288;10.966;2023-05-10T08:29:30;15.50;99.20
29501;DHT22;16450;50.288;10.966;2023-05-10T08:32:47;15.60;99.50
29501;DHT22;16450;50.288;10.966;2023-05-10T08:35:48;15.80;99.70
29501;DHT22;16450;50.288;10.966;2023-05-10T08:38:51;16.00;99.70
29501;DHT22;16450;50.288;10.966;2023-05-10T08:41:54;16.10;99.50
29501;DHT22;16450;50.288;10.966;2023-05-10T08:44:59;16.30;99.40
29501;DHT22;16450;50.288;10.966;2023-05-10T08:48:06;16.50;99.60
29501;DHT22;16450;50.288;10.966;2023-05-10T08:51:09;16.70;99.50
29501;DHT22;16450;50.288;10.966;2023-05-10T08:54:11;16.90;99.70
29501;DHT22;16450;50.288;10.966;2023-05-10T08:57:13;17.10;99.90
29501;DHT22;16450;50.288;10.966;2023-05-10T09:00:16;17.30;99.20
29501;DHT22;16450;50.288;10.966;2023-05-10T09:03:18;17.40;98.60
29501;DHT22;16450;50.288;10.966;2023-05-10T09:06:20;17.40;97.90
29501;DHT22;16450;50.288;10.966;2023-05-10T09:09:23;17.40;97.60
29501;DHT22;16450;50.288;10.966;2023-05-10T09:12:26;17.40;97.50
29501;DHT22;16450;50.288;10.966;2023-05-10T09:15:28;17.40;97.40
29501;DHT22;16450;50.288;10.966;2023-05-10T09:18:30;17.40;97.30
29501;DHT22;16450;50.288;10.966;2023-05-10T09:21:35;17.40;97.30
29501;DHT22;16450;50.288;10.966;2023-05-10T09:24:39;17.40;97.30
29501;DHT22;16450;50.288;10.966;2023-05-10T09:27:47;17.40;97.50
29501;DHT22;16450;50.288;10.966;2023-05-10T09:30:53;17.50;97.40
29501;DHT22;16450;50.288;10.966;2023-05-10T09:33:57;17.60;97.30
29501;DHT22;16450;50.288;10.966;2023-05-10T09:37:00;17.70;98.00
29501;DHT22;16450;50.288;10.966;2023-05-10T09:40:15;17.80;97.50
29501;DHT22;16450;50.288;10.966;2023-05-10T09:43:17;17.90;96.60
29501;DHT22;16450;50.288;10.966;2023-05-10T09:46:19;18.00;97.10
29501;DHT22;16450;50.288;10.966;2023-05-10T09:49:21;17.90;96.70
29501;DHT22;16450;50.288;10.966;2023-05-10T09:52:23;18.00;96.20
29501;DHT22;16450;50.288;10.966;2023-05-10T09:55:39;17.90;96.10
29501;DHT22;16450;50.288;10.966;2023-05-10T09:58:42;17.90;95.90
29501;DHT22;16450;50.288;10.966;2023-05-10T10:01:49;17.90;96.10
29501;DHT22;16450;50.288;10.966;2023-05-10T10:04:52;17.80;95.20
29501;DHT22;16450;50.288;10.966;2023-05-10T10:07:56;17.80;96.00
29501;DHT22;16450;50.288;10.966;2023-05-10T10:10:58;17.80;96.00
29501;DHT22;16450;50.288;10.966;2023-05-10T10:14:01;17.80;96.30
29501;DHT22;16450;50.288;10.966;2023-05-10T10:17:03;17.70;96.20
29501;DHT22;16450;50.288;10.966;2023-05-10T10:20:10;17.80;96.30
29501;DHT22;16450;50.288;10.966;2023-05-10T10:23:12;17.80;96.30
29501;DHT22;16450;50.288;10.966;2023-05-10T10:26:18;17.90;96.60
29501;DHT22;16450;50.288;10.966;2023-05-10T10:29:41;18.00;97.00
29501;DHT22;16450;50.288;10.966;2023-05-10T10:36:47;18.30;95.70
29501;DHT22;16450;50.288;10.966;2023-05-10T10:39:49;18.60;97.90
29501;DHT22;16450;50.288;10.966;2023-05-10T10:42:52;18.80;98.00
29501;DHT22;16450;50.288;10.966;2023-05-10T10:46:14;19.00;97.70
29501;DHT22;16450;50.288;10.966;2023-05-10T10:49:17;19.20;95.00
29501;DHT22;16450;50.288;10.966;2023-05-10T10:55:31;19.20;94.20
29501;DHT22;16450;50.288;10.966;2023-05-10T10:58:34;19.10;94.60
29501;DHT22;16450;50.288;10.966;2023-05-10T11:01:36;18.90;94.00
29501;DHT22;16450;50.288;10.966;2023-05-10T11:04:42;18.70;93.90
29501;DHT22;16450;50.288;10.966;2023-05-10T11:07:55;18.40;93.90
29501;DHT22;16450;50.288;10.966;2023-05-10T11:14:06;18.00;94.10
29501;DHT22;16450;50.288;10.966;2023-05-10T11:17:37;17.80;94.50
29501;DHT22;16450;50.288;10.966;2023-05-10T11:20:39;17.70;94.10
29501;DHT22;16450;50.288;10.966;2023-05-10T11:23:48;17.60;95.70
29501;DHT22;16450;50.288;10.966;2023-05-10T11:26:50;17.60;95.30
29501;DHT22;16450;50.288;10.966;2023-05-10T11:29:53;17.60;96.30
29501;DHT22;16450;50.288;10.966;2023-05-10T11:32:55;17.70;96.40
29501;DHT22;16450;50.288;10.966;2023-05-10T11:35:57;17.80;96.50
29501;DHT22;16450;50.288;10.966;2023-05-10T11:38:59;17.90;96.70
29501;DHT22;16450;50.288;10.966;2023-05-10T11:42:01;17.90;96.60
29501;DHT22;16450;50.288;10.966;2023-05-10T11:45:03;18.10;96.60
29501;DHT22;16450;50.288;10.966;2023-05-10T11:48:05;18.10;96.40
29501;DHT22;16450;50.288;10.966;2023-05-10T11:51:08;18.20;96.70
29501;DHT22;16450;50.288;10.966;2023-05-10T11:54:11;18.30;96.80
29501;DHT22;16450;50.288;10.966;2023-05-10T11:57:13;18.40;96.70
29501;DHT22;16450;50.288;10.966;2023-05-10T12:00:15;18.60;96.80
29501;DHT22;16450;50.288;10.966;2023-05-10T12:03:17;18.70;97.00
29501;DHT22;16450;50.288;10.966;2023-05-10T12:06:20;18.80;97.00
29501;DHT22;16450;50.288;10.966;2023-05-10T12:09:22;18.90;96.70
29501;DHT22;16450;50.288;10.966;2023-05-10T12:12:42;19.10;96.60
29501;DHT22;16450;50.288;10.966;2023-05-10T12:15:44;19.20;95.10
29501;DHT22;16450;50.288;10.966;2023-05-10T12:18:50;19.40;96.90
29501;DHT22;16450;50.288;10.966;2023-05-10T12:21:53;19.50;96.20
29501;DHT22;16450;50.288;10.966;2023-05-10T12:24:58;19.70;96.90
29501;DHT22;16450;50.288;10.966;2023-05-10T12:28:03;19.80;96.50
29501;DHT22;16450;50.288;10.966;2023-05-10T12:31:06;19.90;96.00
29501;DHT22;16450;50.288;10.966;2023-05-10T12:34:09;20.00;96.00
29501;DHT22;16450;50.288;10.966;2023-05-10T12:37:11;20.10;95.30
29501;DHT22;16450;50.288;10.966;2023-05-10T12:40:14;20.00;94.00
29501;DHT22;16450;50.288;10.966;2023-05-10T12:43:16;19.80;93.40
29501;DHT22;16450;50.288;10.966;2023-05-10T12:46:18;19.70;93.40
29501;DHT22;16450;50.288;10.966;2023-05-10T12:49:20;19.50;93.70
29501;DHT22;16450;50.288;10.966;2023-05-10T12:52:22;19.40;94.00
29501;DHT22;16450;50.288;10.966;2023-05-10T12:55:24;19.30;94.10
29501;DHT22;16450;50.288;10.966;2023-05-10T12:58:27;19.20;94.20
29501;DHT22;16450;50.288;10.966;2023-05-10T13:01:36;19.10;94.60
29501;DHT22;16450;50.288;10.966;2023-05-10T13:04:38;19.00;94.90
29501;DHT22;16450;50.288;10.966;2023-05-10T13:07:41;19.00;95.30
29501;DHT22;16450;50.288;10.966;2023-05-10T13:10:45;19.00;95.40
29501;DHT22;16450;50.288;10.966;2023-05-10T13:13:47;19.00;95.90
29501;DHT22;16450;50.288;10.966;2023-05-10T13:16:49;19.00;95.60
29501;DHT22;16450;50.288;10.966;2023-05-10T13:19:51;19.00;95.30
29501;DHT22;16450;50.288;10.966;2023-05-10T13:22:53;19.00;95.20
29501;DHT22;16450;50.288;10.966;2023-05-10T13:25:55;19.00;95.00
29501;DHT22;16450;50.288;10.966;2023-05-10T13:28:57;18.90;94.80
29501;DHT22;16450;50.288;10.966;2023-05-10T13:31:59;18.90;94.60
29501;DHT22;16450;50.288;10.966;2023-05-10T13:35:01;18.90;94.70
29501;DHT22;16450;50.288;10.966;2023-05-10T13:38:04;18.90;94.50
29501;DHT22;16450;50.288;10.966;2023-05-10T13:41:10;18.90;94.80
29501;DHT22;16450;50.288;10.966;2023-05-10T13:44:13;18.90;94.60
29501;DHT22;16450;50.288;10.966;2023-05-10T13:47:16;19.00;94.40
29501;DHT22;16450;50.288;10.966;2023-05-10T13:50:18;18.70;94.60
29501;DHT22;16450;50.288;10.966;2023-05-10T13:53:20;19.00;94.80
29501;DHT22;16450;50.288;10.966;2023-05-10T13:56:22;19.10;94.90
29501;DHT22;16450;50.288;10.966;2023-05-10T13:59:24;19.20;95.20
29501;DHT22;16450;50.288;10.966;2023-05-10T14:02:26;19.30;95.30
29501;DHT22;16450;50.288;10.966;2023-05-10T14:05:29;19.40;95.10
29501;DHT22;16450;50.288;10.966;2023-05-10T14:08:30;19.60;95.40
29501;DHT22;16450;50.288;10.966;2023-05-10T14:11:32;19.70;95.10
29501;DHT22;16450;50.288;10.966;2023-05-10T14:14:34;19.70;94.90
29501;DHT22;16450;50.288;10.966;2023-05-10T14:17:36;19.80;94.60
29501;DHT22;16450;50.288;10.966;2023-05-10T14:20:37;19.90;94.40
29501;DHT22;16450;50.288;10.966;2023-05-10T14:23:39;19.90;94.00
29501;DHT22;16450;50.288;10.966;2023-05-10T14:26:41;19.90;93.80
29501;DHT22;16450;50.288;10.966;2023-05-10T14:29:43;19.90;93.70
29501;DHT22;16450;50.288;10.966;2023-05-10T14:32:45;19.90;93.60
29501;DHT22;16450;50.288;10.966;2023-05-10T14:35:48;19.90;93.80
29501;DHT22;16450;50.288;10.966;2023-05-10T14:38:49;19.90;93.70
29501;DHT22;16450;50.288;10.966;2023-05-10T14:41:52;19.90;93.60
29501;DHT22;16450;50.288;10.966;2023-05-10T14:44:54;20.00;93.30
29501;DHT22;16450;50.288;10.966;2023-05-10T14:47:56;20.00;93.20
29501;DHT22;16450;50.288;10.966;2023-05-10T14:50:58;20.00;93.10
29501;DHT22;16450;50.288;10.966;2023-05-10T14:54:00;20.00;92.70
29501;DHT22;16450;50.288;10.966;2023-05-10T14:57:02;20.10;92.80
29501;DHT22;16450;50.288;10.966;2023-05-10T15:00:04;20.10;92.60
29501;DHT22;16450;50.288;10.966;2023-05-10T15:03:07;20.00;92.40
29501;DHT22;16450;50.288;10.966;2023-05-10T15:06:09;20.00;92.50
29501;DHT22;16450;50.288;10.966;2023-05-10T15:09:11;20.00;92.60
29501;DHT22;16450;50.288;10.966;2023-05-10T15:12:13;20.00;92.50
29501;DHT22;16450;50.288;10.966;2023-05-10T15:15:15;20.10;92.80
29501;DHT22;16450;50.288;10.966;2023-05-10T15:18:17;20.00;92.30
29501;DHT22;16450;50.288;10.966;2023-05-10T15:21:19;20.00;92.40
29501;DHT22;16450;50.288;10.966;2023-05-10T15:24:21;19.90;92.50
29501;DHT22;16450;50.288;10.966;2023-05-10T15:27:23;19.90;92.10
29501;DHT22;16450;50.288;10.966;2023-05-10T15:30:25;19.90;91.80
29501;DHT22;16450;50.288;10.966;2023-05-10T15:33:27;19.70;91.40
29501;DHT22;16450;50.288;10.966;2023-05-10T15:36:29;19.60;91.20
29501;DHT22;16450;50.288;10.966;2023-05-10T15:39:30;19.40;91.00
29501;DHT22;16450;50.288;10.966;2023-05-10T15:42:32;19.20;90.30
29501;DHT22;16450;50.288;10.966;2023-05-10T15:45:34;19.00;90.20
29501;DHT22;16450;50.288;10.966;2023-05-10T15:48:38;18.70;90.30
29501;DHT22;16450;50.288;10.966;2023-05-10T15:51:40;18.50;90.60
29501;DHT22;16450;50.288;10.966;2023-05-10T15:54:42;18.20;91.10
29501;DHT22;16450;50.288;10.966;2023-05-10T15:57:44;18.00;91.00
29501;DHT22;16450;50.288;10.966;2023-05-10T16:00:46;17.80;91.20
29501;DHT22;16450;50.288;10.966;2023-05-10T16:03:48;17.60;91.40
29501;DHT22;16450;50.288;10.966;2023-05-10T16:06:50;17.50;91.90
29501;DHT22;16450;50.288;10.966;2023-05-10T16:09:52;17.30;91.80
29501;DHT22;16450;50.288;10.966;2023-05-10T16:12:54;17.20;92.30
29501;DHT22;16450;50.288;10.966;2023-05-10T16:15:56;17.10;92.60
29501;DHT22;16450;50.288;10.966;2023-05-10T16:18:58;17.10;92.90
29501;DHT22;16450;50.288;10.966;2023-05-10T16:22:02;17.00;93.00
29501;DHT22;16450;50.288;10.966;2023-05-10T16:25:04;16.90;93.10
29501;DHT22;16450;50.288;10.966;2023-05-10T16:28:06;16.90;93.20
29501;DHT22;16450;50.288;10.966;2023-05-10T16:31:08;16.90;93.40
29501;DHT22;16450;50.288;10.966;2023-05-10T16:34:10;16.80;93.60
29501;DHT22;16450;50.288;10.966;2023-05-10T16:37:12;16.80;93.80
29501;DHT22;16450;50.288;10.966;2023-05-10T16:40:14;16.80;94.00
29501;DHT22;16450;50.288;10.966;2023-05-10T16:43:16;16.70;94.10
29501;DHT22;16450;50.288;10.966;2023-05-10T16:46:18;16.70;94.00
29501;DHT22;16450;50.288;10.966;2023-05-10T16:49:20;16.70;94.20
29501;DHT22;16450;50.288;10.966;2023-05-10T16:52:23;16.70;94.30
29501;DHT22;16450;50.288;10.966;2023-05-10T16:55:25;16.60;94.60
29501;DHT22;16450;50.288;10.966;2023-05-10T16:58:27;16.60;94.60
29501;DHT22;16450;50.288;10.966;2023-05-10T17:01:28;16.60;94.80
29501;DHT22;16450;50.288;10.966;2023-05-10T17:04:30;16.60;94.90
29501;DHT22;16450;50.288;10.966;2023-05-10T17:07:32;16.70;95.00
29501;DHT22;16450;50.288;10.966;2023-05-10T17:10:34;16.60;94.90
29501;DHT22;16450;50.288;10.966;2023-05-10T17:13:37;16.60;94.70
29501;DHT22;16450;50.288;10.966;2023-05-10T17:16:40;16.60;94.60
29501;DHT22;16450;50.288;10.966;2023-05-10T17:19:45;16.60;94.60
29501;DHT22;16450;50.288;10.966;2023-05-10T17:22:47;16.60;94.60
29501;DHT22;16450;50.288;10.966;2023-05-10T17:25:48;16.50;94.90
29501;DHT22;16450;50.288;10.966;2023-05-10T17:28:52;16.50;95.20
29501;DHT22;16450;50.288;10.966;2023-05-10T17:31:55;16.50;95.40
29501;DHT22;16450;50.288;10.966;2023-05-10T17:34:57;16.40;95.40
29501;DHT22;16450;50.288;10.966;2023-05-10T17:37:59;16.40;95.40
29501;DHT22;16450;50.288;10.966;2023-05-10T17:41:01;16.20;95.50
29501;DHT22;16450;50.288;10.966;2023-05-10T17:44:02;16.30;95.70
29501;DHT22;16450;50.288;10.966;2023-05-10T17:47:04;16.30;95.90
29501;DHT22;16450;50.288;10.966;2023-05-10T17:50:08;16.20;96.10
29501;DHT22;16450;50.288;10.966;2023-05-10T17:53:10;16.20;96.30
29501;DHT22;16450;50.288;10.966;2023-05-10T17:56:13;16.20;96.50
29501;DHT22;16450;50.288;10.966;2023-05-10T17:59:15;16.20;96.70
29501;DHT22;16450;50.288;10.966;2023-05-10T18:02:16;16.20;96.80
29501;DHT22;16450;50.288;10.966;2023-05-10T18:05:19;16.10;96.90
29501;DHT22;16450;50.288;10.966;2023-05-10T18:08:21;16.10;97.10
29501;DHT22;16450;50.288;10.966;2023-05-10T18:11:25;16.10;97.30
29501;DHT22;16450;50.288;10.966;2023-05-10T18:14:27;16.10;97.30
29501;DHT22;16450;50.288;10.966;2023-05-10T18:17:41;16.10;97.50
29501;DHT22;16450;50.288;10.966;2023-05-10T18:20:43;16.10;97.50
29501;DHT22;16450;50.288;10.966;2023-05-10T18:23:46;16.00;97.60
29501;DHT22;16450;50.288;10.966;2023-05-10T18:26:48;16.00;97.70
29501;DHT22;16450;50.288;10.966;2023-05-10T18:29:50;16.00;97.60
29501;DHT22;16450;50.288;10.966;2023-05-10T18:32:52;16.00;97.80
29501;DHT22;16450;50.288;10.966;2023-05-10T18:35:55;15.90;97.80
29501;DHT22;16450;50.288;10.966;2023-05-10T18:38:57;15.90;97.80
29501;DHT22;16450;50.288;10.966;2023-05-10T18:41:59;15.90;97.80
29501;DHT22;16450;50.288;10.966;2023-05-10T18:45:01;15.80;97.80
29501;DHT22;16450;50.288;10.966;2023-05-10T18:48:04;15.80;97.90
29501;DHT22;16450;50.288;10.966;2023-05-10T18:51:06;15.70;97.90
29501;DHT22;16450;50.288;10.966;2023-05-10T18:54:08;15.70;97.80
29501;DHT22;16450;50.288;10.966;2023-05-10T18:57:10;15.70;97.90
29501;DHT22;16450;50.288;10.966;2023-05-10T19:00:13;15.60;97.90
29501;DHT22;16450;50.288;10.966;2023-05-10T19:03:15;15.60;98.10
29501;DHT22;16450;50.288;10.966;2023-05-10T19:06:17;15.60;98.20
29501;DHT22;16450;50.288;10.966;2023-05-10T19:09:18;15.60;98.30
29501;DHT22;16450;50.288;10.966;2023-05-10T19:12:21;15.50;98.40
29501;DHT22;16450;50.288;10.966;2023-05-10T19:15:23;15.60;98.50
29501;DHT22;16450;50.288;10.966;2023-05-10T19:18:26;15.50;98.50